createdAt,value
2018-03-21T00:02:02.518Z,101936.50
2018-03-21T00:04:30.009Z,101943.83
2018-03-21T00:06:57.516Z,101945.95
2018-03-21T00:09:24.974Z,101946.67
2018-03-21T00:11:52.434Z,101953.33
2018-03-21T00:14:19.915Z,101954.67
2018-03-21T00:16:47.481Z,101954.62
2018-03-21T00:19:14.939Z,101951.10
2018-03-21T00:21:42.418Z,101953.70
2018-03-21T00:24:09.878Z,101957.53
2018-03-21T00:26:37.348Z,101953.83
2018-03-21T00:29:04.898Z,101956.92
2018-03-21T00:31:32.360Z,101960.98
2018-03-21T00:33:59.843Z,101964.61
2018-03-21T00:36:27.345Z,101962.72
2018-03-21T00:38:54.888Z,101968.19
2018-03-21T00:41:22.367Z,101973.43
2018-03-21T00:43:49.906Z,101974.66
2018-03-21T00:46:17.413Z,101971.92
2018-03-21T00:48:44.882Z,101974.47
2018-03-21T00:51:12.352Z,101981.47
2018-03-21T00:53:39.840Z,101979.59
2018-03-21T00:56:07.303Z,101981.95
2018-03-21T00:58:34.785Z,101977.41
2018-03-21T01:01:02.315Z,101981.58
2018-03-21T01:03:29.819Z,101975.34
2018-03-21T01:05:57.327Z,101983.53
2018-03-21T01:08:24.807Z,101984.62
2018-03-21T01:10:52.271Z,101987.88
2018-03-21T01:13:19.730Z,101995.05
2018-03-21T01:15:47.220Z,101982.63
2018-03-21T01:18:14.679Z,101994.28
2018-03-21T01:20:42.143Z,101994.04
2018-03-21T01:23:09.620Z,101994.98
2018-03-21T01:25:37.094Z,101997.36
2018-03-21T01:28:04.646Z,101997.58
2018-03-21T01:30:32.133Z,101994.92
2018-03-21T01:32:59.669Z,102001.22
2018-03-21T01:35:27.128Z,101998.23
2018-03-21T01:37:54.618Z,102002.86
2018-03-21T01:40:22.113Z,101999.28
2018-03-21T01:42:49.582Z,101998.52
2018-03-21T01:45:17.059Z,102002.02
2018-03-21T01:47:44.542Z,102001.59
2018-03-21T01:50:12.000Z,102012.16
2018-03-21T01:52:39.496Z,102009.67
2018-03-21T01:55:06.955Z,102011.42
2018-03-21T01:57:34.426Z,102014.78
2018-03-21T02:00:01.899Z,102020.13
2018-03-21T02:02:29.362Z,102014.05
2018-03-21T02:04:56.921Z,102018.07
2018-03-21T02:07:24.399Z,102020.03
2018-03-21T02:09:51.861Z,102018.91
2018-03-21T02:12:19.314Z,102017.23
2018-03-21T02:14:46.961Z,102029.59
2018-03-21T02:17:14.413Z,102020.70
2018-03-21T02:19:41.910Z,102019.23
2018-03-21T02:22:09.391Z,102019.47
2018-03-21T02:24:36.882Z,102014.44
2018-03-21T02:27:04.462Z,102021.08
2018-03-21T02:29:32.046Z,102022.08
2018-03-21T02:31:59.499Z,102022.42
2018-03-21T02:34:27.029Z,102022.98
2018-03-21T02:36:54.579Z,102022.00
2018-03-21T02:39:22.038Z,102018.52
2018-03-21T02:41:49.533Z,102018.61
2018-03-21T02:44:17.003Z,102016.66
2018-03-21T02:46:44.458Z,102024.34
2018-03-21T02:49:11.978Z,102024.50
2018-03-21T02:51:39.539Z,102023.70
2018-03-21T02:54:07.006Z,102021.59
2018-03-21T02:56:34.490Z,102023.37
2018-03-21T02:59:01.957Z,102020.37
2018-03-21T03:01:29.407Z,102027.01
2018-03-21T03:03:56.887Z,102020.89
2018-03-21T03:06:24.371Z,102021.52
2018-03-21T03:08:51.925Z,102023.05
2018-03-21T03:11:19.498Z,102020.56
2018-03-21T03:13:47.092Z,102023.02
2018-03-21T03:16:14.563Z,102022.05
2018-03-21T03:18:42.057Z,102011.40
2018-03-21T03:21:09.516Z,102021.95
2018-03-21T03:23:36.977Z,102021.59
2018-03-21T03:26:04.536Z,102022.61
2018-03-21T03:28:32.051Z,102016.48
2018-03-21T03:30:59.492Z,102023.13
2018-03-21T03:33:27.066Z,102028.76
2018-03-21T03:35:54.521Z,102024.54
2018-03-21T03:38:21.994Z,102026.25
2018-03-21T03:40:49.483Z,102026.57
2018-03-21T03:43:16.975Z,102026.09
2018-03-21T03:45:44.494Z,102030.06
2018-03-21T03:48:11.966Z,102031.39
2018-03-21T03:50:39.510Z,102031.50
2018-03-21T03:53:07.020Z,102029.84
2018-03-21T03:55:34.578Z,102026.91
2018-03-21T03:58:02.063Z,102028.44
2018-03-21T04:00:29.521Z,102024.16
2018-03-21T04:02:56.997Z,102027.24
2018-03-21T04:05:24.569Z,102027.66
2018-03-21T04:07:52.023Z,102030.91
2018-03-21T04:10:19.509Z,102029.75
2018-03-21T04:12:47.032Z,102032.75
2018-03-21T04:15:14.498Z,102030.58
2018-03-21T04:17:42.558Z,102039.84
2018-03-21T04:20:10.014Z,102030.67
2018-03-21T04:22:37.470Z,102031.09
2018-03-21T04:25:05.139Z,102037.37
2018-03-21T04:27:32.608Z,102034.82
2018-03-21T04:30:00.067Z,102037.96
2018-03-21T04:32:27.610Z,102038.31
2018-03-21T04:34:55.068Z,102037.31
2018-03-21T04:37:22.523Z,102029.24
2018-03-21T04:39:49.999Z,102029.59
2018-03-21T04:42:17.456Z,102024.25
2018-03-21T04:44:44.911Z,102024.19
2018-03-21T04:47:12.378Z,102028.34
2018-03-21T04:49:39.842Z,102024.00
2018-03-21T04:52:07.587Z,102025.59
2018-03-21T04:54:35.043Z,102029.84
2018-03-21T04:57:02.538Z,102028.09
2018-03-21T04:59:29.996Z,102029.06
2018-03-21T05:01:57.498Z,102032.25
2018-03-21T05:04:24.939Z,102031.34
2018-03-21T05:06:52.422Z,102030.56
2018-03-21T05:09:19.878Z,102036.81
2018-03-21T05:11:47.383Z,102038.27
2018-03-21T05:14:14.897Z,102033.80
2018-03-21T05:16:42.351Z,102044.10
2018-03-21T05:19:09.802Z,102041.19
2018-03-21T05:21:37.273Z,102041.68
2018-03-21T05:24:04.830Z,102042.03
2018-03-21T05:26:32.327Z,102039.93
2018-03-21T05:28:59.793Z,102040.45
2018-03-21T05:31:27.250Z,102043.52
2018-03-21T05:33:54.721Z,102047.96
2018-03-21T05:36:22.180Z,102047.96
2018-03-21T05:38:49.657Z,102043.42
2018-03-21T05:41:17.182Z,102046.23
2018-03-21T05:43:44.735Z,102047.69
2018-03-21T05:46:12.219Z,102050.14
2018-03-21T05:48:39.686Z,102050.09
2018-03-21T05:51:07.986Z,102044.70
2018-03-21T05:53:35.450Z,102043.72
2018-03-21T05:56:02.906Z,102043.09
2018-03-21T05:58:30.396Z,102043.77
2018-03-21T06:00:57.859Z,102048.36
2018-03-21T06:03:25.350Z,102045.36
2018-03-21T06:05:52.838Z,102048.82
2018-03-21T06:08:20.290Z,102046.48
2018-03-21T06:10:47.758Z,102041.95
2018-03-21T06:13:15.223Z,102043.70
2018-03-21T06:15:42.715Z,102046.83
2018-03-21T06:18:10.179Z,102048.06
2018-03-21T06:20:37.645Z,102048.20
2018-03-21T06:23:05.135Z,102054.62
2018-03-21T06:25:32.687Z,102050.78
2018-03-21T06:28:00.246Z,102059.14
2018-03-21T06:30:27.817Z,102062.36
2018-03-21T06:32:55.279Z,102060.62
2018-03-21T06:35:22.770Z,102067.44
2018-03-21T06:37:50.239Z,102067.97
2018-03-21T06:40:17.698Z,102069.78
2018-03-21T06:42:45.177Z,102072.65
2018-03-21T06:45:12.631Z,102065.82
2018-03-21T06:47:40.083Z,102066.72
2018-03-21T06:50:07.550Z,102073.02
2018-03-21T06:52:35.126Z,102072.30
2018-03-21T06:55:02.607Z,102070.55
2018-03-21T06:57:30.085Z,102066.44
2018-03-21T06:59:57.566Z,102069.39
2018-03-21T07:02:25.036Z,102077.97
2018-03-21T07:04:52.510Z,102073.97
2018-03-21T07:07:20.002Z,102080.17
2018-03-21T07:09:47.505Z,102089.36
2018-03-21T07:12:14.992Z,102090.91
2018-03-21T07:14:54.222Z,102095.88
2018-03-21T07:17:22.111Z,102095.44
2018-03-21T07:19:49.570Z,102102.30
2018-03-21T07:22:17.110Z,102099.80
2018-03-21T07:24:44.607Z,102098.13
2018-03-21T07:27:12.080Z,102098.89
2018-03-21T07:29:39.556Z,102098.92
2018-03-21T07:32:07.017Z,102100.11
2018-03-21T07:34:34.537Z,102097.16
2018-03-21T07:37:02.004Z,102097.80
2018-03-21T07:39:29.518Z,102097.23
2018-03-21T07:41:57.064Z,102092.98
2018-03-21T07:44:24.518Z,102096.38
2018-03-21T07:46:51.982Z,102096.03
2018-03-21T07:49:19.585Z,102102.69
2018-03-21T07:51:47.068Z,102101.95
2018-03-21T07:54:14.531Z,102100.45
2018-03-21T07:56:42.025Z,102101.82
2018-03-21T07:59:09.520Z,102107.20
2018-03-21T08:01:36.970Z,102105.13
2018-03-21T08:04:04.534Z,102111.45
2018-03-21T08:06:31.990Z,102110.76
2018-03-21T08:08:59.449Z,102107.77
2018-03-21T08:11:26.917Z,102109.81
2018-03-21T08:13:54.427Z,102107.29
2018-03-21T08:16:21.893Z,102107.30
2018-03-21T08:18:49.375Z,102106.54
2018-03-21T08:21:16.826Z,102107.87
2018-03-21T08:23:44.350Z,102116.66
2018-03-21T08:26:11.812Z,102115.35
2018-03-21T08:28:39.295Z,102117.45
2018-03-21T08:31:06.799Z,102115.88
2018-03-21T08:33:34.251Z,102115.65
2018-03-21T08:36:01.747Z,102118.70
2018-03-21T08:38:29.210Z,102114.34
2018-03-21T08:40:56.805Z,102110.24
2018-03-21T08:43:24.318Z,102116.80
2018-03-21T08:45:51.823Z,102115.35
2018-03-21T08:48:19.276Z,102107.03
2018-03-21T08:50:46.784Z,102107.52
2018-03-21T08:53:14.234Z,102106.25
2018-03-21T08:55:41.721Z,102102.84
2018-03-21T08:58:09.263Z,102106.48
2018-03-21T09:00:36.715Z,102107.83
2018-03-21T09:03:04.191Z,102102.77
2018-03-21T09:05:31.642Z,102102.41
2018-03-21T09:07:59.103Z,102101.16
2018-03-21T09:10:26.650Z,102095.38
2018-03-21T09:12:54.110Z,102094.72
2018-03-21T09:15:21.615Z,102093.11
2018-03-21T09:17:49.069Z,102097.17
2018-03-21T09:20:16.528Z,102100.30
2018-03-21T09:22:43.987Z,102088.39
2018-03-21T09:25:11.545Z,102091.77
2018-03-21T09:27:39.004Z,102095.31
2018-03-21T09:30:06.491Z,102084.75
2018-03-21T09:32:34.034Z,102082.23
2018-03-21T09:35:01.532Z,102075.21
2018-03-21T09:37:29.049Z,102077.10
2018-03-21T09:39:56.518Z,102068.73
2018-03-21T09:42:24.004Z,102082.58
2018-03-21T09:44:51.462Z,102088.22
2018-03-21T09:47:18.931Z,102080.75
2018-03-21T09:49:46.453Z,102076.82
2018-03-21T09:52:13.863Z,102081.04
2018-03-21T09:54:43.314Z,102075.19
2018-03-21T09:57:10.777Z,102071.73
2018-03-21T09:59:38.251Z,102061.75
2018-03-21T10:02:05.715Z,102063.31
2018-03-21T10:04:33.174Z,102059.12
2018-03-21T10:07:00.626Z,102064.86
2018-03-21T10:09:28.190Z,102055.69
2018-03-21T10:11:55.678Z,102058.25
2018-03-21T10:14:23.180Z,102048.69
2018-03-21T10:16:50.658Z,102040.55
2018-03-21T10:19:18.130Z,102053.45
2018-03-21T10:21:45.591Z,102049.83
2018-03-21T10:24:13.142Z,102051.28
2018-03-21T10:26:40.622Z,102047.58
2018-03-21T10:29:08.075Z,102050.59
2018-03-21T10:31:35.553Z,102043.02
2018-03-21T10:34:03.017Z,102047.08
2018-03-21T10:36:30.479Z,102048.75
2018-03-21T10:38:57.963Z,102046.61
2018-03-21T10:41:25.420Z,102048.55
2018-03-21T10:43:52.940Z,102046.72
2018-03-21T10:46:20.457Z,102038.14
2018-03-21T10:48:48.002Z,102042.69
2018-03-21T10:51:15.451Z,102042.33
2018-03-21T10:53:42.914Z,102040.27
2018-03-21T10:56:10.379Z,102036.09
2018-03-21T10:58:37.830Z,102044.24
2018-03-21T11:01:11.007Z,102039.30
2018-03-21T11:03:38.457Z,102037.41
2018-03-21T11:06:05.905Z,102036.92
2018-03-21T11:08:33.398Z,102034.37
2018-03-21T11:11:00.965Z,102032.19
2018-03-21T11:13:28.458Z,102044.02
2018-03-21T11:15:55.945Z,102035.92
2018-03-21T11:18:23.402Z,102031.55
2018-03-21T11:20:50.867Z,102028.42
2018-03-21T11:23:18.375Z,102029.19
2018-03-21T11:25:45.954Z,102030.35
2018-03-21T11:28:13.450Z,102029.53
2018-03-21T11:30:40.943Z,102030.34
2018-03-21T11:33:08.429Z,102031.58
2018-03-21T11:35:35.886Z,102034.36
2018-03-21T11:38:03.378Z,102026.86
2018-03-21T11:40:30.826Z,102027.20
2018-03-21T11:42:58.287Z,102024.91
2018-03-21T11:45:26.038Z,102016.66
2018-03-21T11:47:53.518Z,102023.44
2018-03-21T11:50:20.983Z,102015.99
2018-03-21T11:52:48.446Z,102016.77
2018-03-21T11:55:15.940Z,102016.43
2018-03-21T11:57:43.563Z,102011.66
2018-03-21T12:00:11.123Z,102016.61
2018-03-21T12:02:38.592Z,102003.05
2018-03-21T12:05:06.046Z,102005.13
2018-03-21T12:07:33.502Z,102004.40
2018-03-21T12:10:00.986Z,101997.40
2018-03-21T12:12:28.442Z,102004.22
2018-03-21T12:14:55.905Z,101999.44
2018-03-21T12:17:23.386Z,101996.43
2018-03-21T12:19:50.846Z,101993.76
2018-03-21T12:22:18.373Z,101992.66
2018-03-21T12:24:45.861Z,101989.41
2018-03-21T12:27:13.337Z,101982.64
2018-03-21T12:29:40.782Z,101972.34
2018-03-21T12:32:08.272Z,101975.81
2018-03-21T12:34:35.829Z,101971.95
2018-03-21T12:37:03.274Z,101968.87
2018-03-21T12:39:30.735Z,101963.48
2018-03-21T12:41:58.218Z,101958.84
2018-03-21T12:44:25.710Z,101972.19
2018-03-21T12:46:53.246Z,101962.36
2018-03-21T12:49:20.799Z,101961.83
2018-03-21T12:51:48.251Z,101955.36
2018-03-21T12:54:15.703Z,101964.74
2018-03-21T12:56:43.181Z,101960.73
2018-03-21T12:59:10.649Z,101954.61
2018-03-21T13:01:38.128Z,101955.92
2018-03-21T13:04:05.614Z,101951.06
2018-03-21T13:06:33.083Z,101945.00
2018-03-21T13:09:00.550Z,101959.20
2018-03-21T13:11:27.999Z,101952.97
2018-03-21T13:13:55.466Z,101959.26
2018-03-21T13:16:22.923Z,101946.02
2018-03-21T13:18:50.414Z,101946.35
2018-03-21T13:21:17.878Z,101938.45
2018-03-21T13:23:45.335Z,101932.19
2018-03-21T13:26:12.812Z,101937.71
2018-03-21T13:28:40.306Z,101935.44
2018-03-21T13:31:07.794Z,101947.14
2018-03-21T13:33:35.247Z,101932.66
2018-03-21T13:36:02.716Z,101934.62
2018-03-21T13:38:30.239Z,101936.04
2018-03-21T13:40:57.707Z,101932.98
2018-03-21T13:43:25.190Z,101923.66
2018-03-21T13:45:52.665Z,101930.19
2018-03-21T13:48:20.114Z,101932.30
2018-03-21T13:50:47.575Z,101924.27
2018-03-21T13:53:15.041Z,101934.95
2018-03-21T13:55:42.512Z,101939.15
2018-03-21T13:58:10.029Z,101949.86
2018-03-21T14:00:37.559Z,101939.27
2018-03-21T14:03:05.024Z,101943.41
2018-03-21T14:05:32.514Z,101938.11
2018-03-21T14:07:59.963Z,101934.84
2018-03-21T14:10:27.475Z,101931.27
2018-03-21T14:12:55.048Z,101930.53
2018-03-21T14:15:22.506Z,101921.40
2018-03-21T14:17:49.986Z,101924.44
2018-03-21T14:20:17.462Z,101920.92
2018-03-21T14:22:44.917Z,101921.31
2018-03-21T14:25:12.379Z,101918.31
2018-03-21T14:27:39.850Z,101919.30
2018-03-21T14:30:07.343Z,101912.00
2018-03-21T14:32:35.053Z,101915.58
2018-03-21T14:35:02.624Z,101899.86
2018-03-21T14:37:30.071Z,101897.00
2018-03-21T14:39:57.574Z,101895.49
2018-03-21T14:42:25.034Z,101894.10
2018-03-21T14:44:52.512Z,101885.80
2018-03-21T14:47:20.011Z,101882.64
2018-03-21T14:49:47.510Z,101879.36
2018-03-21T14:52:15.018Z,101878.91
2018-03-21T14:54:42.482Z,101869.92
2018-03-21T14:57:09.935Z,101861.52
2018-03-21T14:59:37.386Z,101871.48
2018-03-21T15:02:04.863Z,101868.13
2018-03-21T15:04:32.318Z,101864.77
2018-03-21T15:06:59.773Z,101862.90
2018-03-21T15:09:27.323Z,101860.05
2018-03-21T15:11:54.804Z,101857.78
2018-03-21T15:14:22.261Z,101855.89
2018-03-21T15:16:49.715Z,101852.95
2018-03-21T15:19:17.216Z,101850.73
2018-03-21T15:21:44.674Z,101852.39
2018-03-21T15:24:12.134Z,101844.46
2018-03-21T15:26:39.620Z,101850.25
2018-03-21T15:29:07.065Z,101851.70
2018-03-21T15:31:34.610Z,101848.34
2018-03-21T15:34:02.132Z,101841.45
2018-03-21T15:36:29.591Z,101831.38
2018-03-21T15:38:57.045Z,101839.87
2018-03-21T15:41:24.506Z,101830.91
2018-03-21T15:43:51.982Z,101833.86
2018-03-21T15:46:19.489Z,101833.51
2018-03-21T15:48:46.913Z,101833.09
2018-03-21T15:51:14.448Z,101830.48
2018-03-21T15:53:41.906Z,101829.56
2018-03-21T15:56:09.364Z,101831.68
2018-03-21T15:58:36.922Z,101832.88
2018-03-21T16:01:04.369Z,101832.14
2018-03-21T16:03:31.889Z,101841.58
2018-03-21T16:05:59.430Z,101830.73
2018-03-21T16:08:26.898Z,101830.13
2018-03-21T16:10:54.343Z,101834.11
2018-03-21T16:13:21.802Z,101823.53
2018-03-21T16:15:49.399Z,101830.84
2018-03-21T16:18:16.826Z,101823.63
2018-03-21T16:20:44.353Z,101833.12
2018-03-21T16:23:11.906Z,101827.83
2018-03-21T16:25:39.390Z,101822.19
2018-03-21T16:28:06.927Z,101827.57
2018-03-21T16:30:34.391Z,101820.10
2018-03-21T16:33:01.950Z,101823.05
2018-03-21T16:35:29.405Z,101822.89
2018-03-21T16:37:56.916Z,101820.45
2018-03-21T16:40:24.390Z,101823.32
2018-03-21T16:42:51.848Z,101828.36
2018-03-21T16:45:19.386Z,101830.63
2018-03-21T16:47:46.838Z,101830.20
2018-03-21T16:50:14.292Z,101830.28
2018-03-21T16:52:41.859Z,101831.14
2018-03-21T16:55:09.283Z,101826.11
2018-03-21T16:57:36.754Z,101830.55
2018-03-21T17:00:04.310Z,101829.86
2018-03-21T17:02:31.774Z,101827.25
2018-03-21T17:04:59.532Z,101830.88
2018-03-21T17:07:27.111Z,101830.87
2018-03-21T17:09:54.633Z,101829.25
2018-03-21T17:12:22.145Z,101831.34
2018-03-21T17:14:49.593Z,101830.08
2018-03-21T17:17:17.062Z,101829.41
2018-03-21T17:19:44.545Z,101831.57
2018-03-21T17:22:12.059Z,101828.39
2018-03-21T17:24:39.581Z,101827.86
2018-03-21T17:27:07.074Z,101826.95
2018-03-21T17:29:34.527Z,101820.20
2018-03-21T17:32:02.000Z,101823.89
2018-03-21T17:34:29.474Z,101830.08
2018-03-21T17:36:56.941Z,101828.55
2018-03-21T17:39:24.412Z,101826.43
2018-03-21T17:41:51.875Z,101826.64
2018-03-21T17:44:19.358Z,101826.44
2018-03-21T17:46:46.814Z,101819.29
2018-03-21T17:49:14.292Z,101813.12
2018-03-21T17:51:41.807Z,101808.86
2018-03-21T17:54:09.279Z,101815.95
2018-03-21T17:56:36.731Z,101806.38
2018-03-21T17:59:04.284Z,101814.67
2018-03-21T18:01:31.751Z,101803.08
2018-03-21T18:03:59.211Z,101804.38
2018-03-21T18:06:26.705Z,101804.20
2018-03-21T18:08:54.166Z,101812.55
2018-03-21T18:11:21.626Z,101812.78
2018-03-21T18:13:49.154Z,101810.70
2018-03-21T18:16:16.619Z,101811.17
2018-03-21T18:18:44.077Z,101805.35
2018-03-21T18:21:11.600Z,101800.05
2018-03-21T18:23:39.054Z,101797.59
2018-03-21T18:26:06.532Z,101796.61
2018-03-21T18:28:34.061Z,101801.33
2018-03-21T18:31:01.531Z,101794.86
2018-03-21T18:33:28.981Z,101793.70
2018-03-21T18:35:56.503Z,101795.69
2018-03-21T18:38:23.947Z,101788.48
2018-03-21T18:40:51.400Z,101784.19
2018-03-21T18:43:18.904Z,101782.52
2018-03-21T18:45:46.364Z,101778.59
2018-03-21T18:48:13.891Z,101777.30
2018-03-21T18:50:41.347Z,101776.70
2018-03-21T18:53:08.847Z,101773.00
2018-03-21T18:55:36.353Z,101778.24
2018-03-21T18:58:03.823Z,101773.66
2018-03-21T19:00:31.345Z,101777.68
2018-03-21T19:02:58.854Z,101773.56
2018-03-21T19:05:26.303Z,101767.46
2018-03-21T19:07:53.839Z,101763.55
2018-03-21T19:10:21.314Z,101762.95
2018-03-21T19:12:48.810Z,101759.25
2018-03-21T19:15:16.236Z,101759.03
2018-03-21T19:17:43.712Z,101767.03
2018-03-21T19:20:11.173Z,101759.31
2018-03-21T19:22:38.634Z,101760.97
2018-03-21T19:25:06.116Z,101755.02
2018-03-21T19:27:33.579Z,101753.31
2018-03-21T19:30:01.056Z,101753.59
2018-03-21T19:32:28.523Z,101753.44
2018-03-21T19:34:55.998Z,101752.02
2018-03-21T19:37:23.454Z,101747.81
2018-03-21T19:39:50.911Z,101749.47
2018-03-21T19:42:18.382Z,101746.89
2018-03-21T19:44:45.864Z,101747.53
2018-03-21T19:47:13.342Z,101748.55
2018-03-21T19:49:40.800Z,101747.20
2018-03-21T19:52:08.262Z,101750.72
2018-03-21T19:54:36.007Z,101745.23
2018-03-21T19:57:03.500Z,101746.66
2018-03-21T19:59:30.963Z,101741.20
2018-03-21T20:01:58.518Z,101738.30
2018-03-21T20:04:25.973Z,101741.21
2018-03-21T20:06:53.529Z,101732.70
2018-03-21T20:09:21.050Z,101725.50
2018-03-21T20:11:48.513Z,101728.52
2018-03-21T20:14:16.008Z,101728.37
2018-03-21T20:16:43.464Z,101726.38
2018-03-21T20:19:10.982Z,101723.38
2018-03-21T20:21:38.483Z,101713.86
2018-03-21T20:24:05.931Z,101714.97
2018-03-21T20:26:33.402Z,101720.51
2018-03-21T20:29:00.956Z,101708.88
2018-03-21T20:31:28.470Z,101709.80
2018-03-21T20:33:55.998Z,101712.80
2018-03-21T20:36:23.478Z,101712.30
2018-03-21T20:38:50.973Z,101708.78
2018-03-21T20:41:18.928Z,101702.86
2018-03-21T20:43:46.482Z,101705.27
2018-03-21T20:46:13.946Z,101695.53
2018-03-21T20:48:41.444Z,101696.50
2018-03-21T20:51:09.022Z,101693.41
2018-03-21T20:53:36.507Z,101690.91
2018-03-21T20:56:03.981Z,101690.91
2018-03-21T20:58:31.447Z,101691.33
2018-03-21T21:00:58.928Z,101694.56
2018-03-21T21:03:26.378Z,101692.39
2018-03-21T21:05:53.882Z,101698.91
2018-03-21T21:08:21.414Z,101692.11
2018-03-21T21:10:48.863Z,101690.22
2018-03-21T21:13:16.327Z,101677.61
2018-03-21T21:15:43.808Z,101678.50
2018-03-21T21:18:11.281Z,101674.98
2018-03-21T21:20:38.737Z,101674.48
2018-03-21T21:23:06.290Z,101669.53
2018-03-21T21:25:33.750Z,101667.66
2018-03-21T21:28:01.198Z,101663.39
2018-03-21T21:30:28.666Z,101667.87
2018-03-21T21:32:56.130Z,101667.98
2018-03-21T21:35:23.602Z,101660.35
2018-03-21T21:37:51.150Z,101665.52
2018-03-21T21:40:18.606Z,101656.48
2018-03-21T21:42:46.066Z,101656.20
2018-03-21T21:45:13.638Z,101654.68
2018-03-21T21:47:41.092Z,101651.13
2018-03-21T21:50:08.586Z,101658.32
2018-03-21T21:52:36.470Z,101651.72
2018-03-21T21:55:03.933Z,101651.86
2018-03-21T21:57:31.413Z,101643.41
2018-03-21T21:59:58.898Z,101642.85
2018-03-21T22:02:26.389Z,101642.12
2018-03-21T22:04:53.872Z,101639.21
2018-03-21T22:07:21.359Z,101641.61
2018-03-21T22:09:48.864Z,101631.73
2018-03-21T22:12:21.957Z,101637.88
2018-03-21T22:14:49.410Z,101632.75
2018-03-21T22:17:16.878Z,101629.94
2018-03-21T22:19:44.342Z,101620.16
2018-03-21T22:22:11.785Z,101619.14
2018-03-21T22:24:39.254Z,101615.21
2018-03-21T22:27:06.784Z,101615.53
2018-03-21T22:31:58.819Z,101604.33
2018-03-21T22:34:26.358Z,101601.09
2018-03-21T22:36:53.813Z,101592.69
2018-03-21T22:39:21.285Z,101592.52
2018-03-21T22:41:48.738Z,101586.83
2018-03-21T22:44:16.185Z,101585.03
2018-03-21T22:46:43.693Z,101590.39
2018-03-21T22:49:11.149Z,101587.71
2018-03-21T22:51:38.629Z,101577.55
2018-03-21T22:54:06.161Z,101577.38
2018-03-21T22:56:33.634Z,101578.72
2018-03-21T22:59:01.097Z,101577.65
2018-03-21T23:01:28.646Z,101579.17
2018-03-21T23:03:56.117Z,101572.57
2018-03-21T23:06:23.727Z,101569.16
2018-03-21T23:08:51.235Z,101567.58
2018-03-21T23:11:18.723Z,101568.65
2018-03-21T23:13:46.190Z,101565.14
2018-03-21T23:16:13.680Z,101559.24
2018-03-21T23:18:41.166Z,101563.02
2018-03-21T23:21:08.638Z,101560.56
2018-03-21T23:23:36.171Z,101552.77
2018-03-21T23:26:03.733Z,101550.92
2018-03-21T23:28:31.282Z,101549.86
2018-03-21T23:30:58.775Z,101544.27
2018-03-21T23:33:26.306Z,101548.32
2018-03-21T23:35:53.867Z,101538.06
2018-03-21T23:38:21.421Z,101536.36
2018-03-21T23:40:48.886Z,101523.90
2018-03-21T23:43:16.346Z,101519.32
2018-03-21T23:45:43.907Z,101516.41
2018-03-21T23:48:11.363Z,101511.47
2018-03-21T23:50:38.818Z,101514.14
2018-03-21T23:53:06.298Z,101518.91
2018-03-21T23:55:33.876Z,101514.23
2018-03-21T23:58:01.346Z,101511.86
